createdAt,value
2018-07-26T00:00:30.307Z,3.77
2018-07-26T00:02:42.540Z,2.90
2018-07-26T00:04:54.768Z,3.07
2018-07-26T00:07:07.043Z,2.93
2018-07-26T00:09:19.272Z,2.77
2018-07-26T00:11:31.504Z,3.10
2018-07-26T00:13:43.778Z,3.10
2018-07-26T00:15:56.030Z,2.63
2018-07-26T00:18:08.246Z,2.57
2018-07-26T00:20:20.527Z,3.10
2018-07-26T00:22:32.776Z,2.90
2018-07-26T00:24:44.979Z,3.13
2018-07-26T00:26:57.197Z,3.27
2018-07-26T00:29:09.439Z,3.23
2018-07-26T00:31:21.674Z,2.70
2018-07-26T00:33:33.880Z,3.03
2018-07-26T00:35:46.078Z,2.97
2018-07-26T00:37:58.299Z,2.90
2018-07-26T00:40:10.513Z,2.83
2018-07-26T00:42:22.730Z,3.10
2018-07-26T00:44:34.964Z,2.97
2018-07-26T00:46:47.147Z,2.87
2018-07-26T00:48:59.379Z,3.53
2018-07-26T00:51:11.626Z,2.67
2018-07-26T00:53:23.880Z,2.80
2018-07-26T00:55:36.073Z,3.07
2018-07-26T00:57:48.265Z,3.43
2018-07-26T01:00:00.499Z,2.90
2018-07-26T01:02:12.678Z,3.30
2018-07-26T01:04:24.885Z,3.30
2018-07-26T01:06:37.162Z,3.13
2018-07-26T01:08:49.397Z,3.30
2018-07-26T01:11:01.599Z,3.30
2018-07-26T01:13:13.778Z,3.23
2018-07-26T01:15:26.007Z,3.30
2018-07-26T01:17:38.211Z,3.20
2018-07-26T01:19:50.439Z,3.23
2018-07-26T01:22:02.735Z,3.30
2018-07-26T01:24:14.909Z,3.00
2018-07-26T01:26:27.229Z,3.37
2018-07-26T01:28:39.483Z,2.97
2018-07-26T01:30:51.701Z,3.40
2018-07-26T01:33:04.183Z,3.70
2018-07-26T01:35:16.378Z,3.63
2018-07-26T01:37:28.571Z,3.50
2018-07-26T01:39:40.731Z,3.57
2018-07-26T01:41:52.966Z,3.40
2018-07-26T01:44:16.250Z,3.80
2018-07-26T01:46:28.474Z,3.53
2018-07-26T01:48:41.559Z,3.50
2018-07-26T01:50:53.735Z,3.37
2018-07-26T01:53:05.996Z,3.40
2018-07-26T01:55:18.191Z,4.30
2018-07-26T01:57:30.399Z,3.10
2018-07-26T01:59:42.626Z,3.30
2018-07-26T02:01:54.802Z,3.70
2018-07-26T02:04:07.136Z,3.60
2018-07-26T02:06:19.331Z,2.77
2018-07-26T02:10:37.180Z,3.37
2018-07-26T02:12:49.443Z,3.47
2018-07-26T02:15:01.656Z,3.20
2018-07-26T02:17:13.849Z,3.37
2018-07-26T02:19:26.078Z,3.13
2018-07-26T02:21:38.313Z,3.50
2018-07-26T02:23:50.550Z,3.40
2018-07-26T02:26:02.799Z,3.60
2018-07-26T02:28:15.009Z,3.30
2018-07-26T02:30:27.226Z,3.30
2018-07-26T02:32:39.415Z,3.33
2018-07-26T02:34:51.594Z,3.10
2018-07-26T02:37:03.883Z,3.33
2018-07-26T02:39:16.127Z,3.50
2018-07-26T02:41:28.296Z,3.37
2018-07-26T02:43:40.497Z,3.43
2018-07-26T02:45:52.709Z,3.60
2018-07-26T02:48:04.966Z,4.17
2018-07-26T02:50:17.189Z,3.73
2018-07-26T02:52:29.398Z,3.50
2018-07-26T02:54:41.640Z,3.53
2018-07-26T02:56:53.836Z,3.37
2018-07-26T02:59:06.017Z,3.30
2018-07-26T03:01:18.439Z,3.73
2018-07-26T03:03:30.663Z,3.57
2018-07-26T03:05:42.922Z,3.50
2018-07-26T03:07:55.248Z,3.50
2018-07-26T03:10:07.558Z,3.30
2018-07-26T03:12:19.754Z,3.60
2018-07-26T03:14:36.507Z,3.90
2018-07-26T03:16:48.737Z,4.03
2018-07-26T03:19:00.962Z,3.37
2018-07-26T03:21:13.182Z,3.37
2018-07-26T03:23:25.404Z,4.30
2018-07-26T03:25:37.685Z,3.93
2018-07-26T03:27:49.907Z,4.43
2018-07-26T03:30:02.218Z,4.00
2018-07-26T03:32:14.434Z,3.73
2018-07-26T03:34:26.647Z,3.80
2018-07-26T03:36:38.825Z,4.00
2018-07-26T03:38:51.074Z,3.97
2018-07-26T03:41:03.278Z,4.40
2018-07-26T03:43:15.475Z,3.67
2018-07-26T03:45:27.676Z,3.73
2018-07-26T03:47:39.916Z,3.67
2018-07-26T03:49:52.106Z,3.93
2018-07-26T03:52:04.548Z,4.37
2018-07-26T03:54:16.782Z,4.00
2018-07-26T03:56:28.991Z,3.70
2018-07-26T03:58:41.227Z,3.87
2018-07-26T04:00:53.514Z,4.10
2018-07-26T04:03:05.751Z,3.90
2018-07-26T04:05:18.047Z,3.90
2018-07-26T04:07:30.231Z,4.33
2018-07-26T04:09:42.436Z,4.30
2018-07-26T04:11:54.666Z,4.20
2018-07-26T04:14:06.956Z,3.77
2018-07-26T04:16:19.237Z,3.87
2018-07-26T04:18:31.423Z,4.40
2018-07-26T04:20:43.662Z,4.40
2018-07-26T04:22:55.867Z,4.47
2018-07-26T04:25:08.135Z,4.60
2018-07-26T04:27:20.348Z,4.67
2018-07-26T04:29:32.526Z,5.13
2018-07-26T04:31:44.867Z,4.20
2018-07-26T04:33:57.043Z,4.87
2018-07-26T04:36:09.277Z,4.50
2018-07-26T04:38:21.515Z,5.00
2018-07-26T04:40:33.758Z,4.83
2018-07-26T04:42:46.012Z,5.30
2018-07-26T04:44:58.214Z,5.50
2018-07-26T04:47:10.548Z,5.07
2018-07-26T04:49:22.747Z,4.83
2018-07-26T04:51:36.771Z,4.23
2018-07-26T04:53:48.959Z,5.07
2018-07-26T04:56:01.155Z,4.10
2018-07-26T04:58:13.375Z,5.20
2018-07-26T05:00:25.640Z,4.50
2018-07-26T05:02:37.972Z,5.07
2018-07-26T05:04:50.187Z,5.03
2018-07-26T05:07:02.480Z,5.20
2018-07-26T05:09:14.749Z,5.20
2018-07-26T05:11:26.971Z,5.83
2018-07-26T05:13:39.248Z,6.00
2018-07-26T05:15:51.477Z,5.57
2018-07-26T05:18:03.720Z,6.20
2018-07-26T05:20:15.920Z,5.97
2018-07-26T05:22:28.178Z,6.07
2018-07-26T05:24:40.423Z,5.97
2018-07-26T05:26:52.663Z,6.07
2018-07-26T05:29:04.950Z,5.77
2018-07-26T05:31:17.179Z,6.27
2018-07-26T05:33:29.455Z,6.63
2018-07-26T05:35:41.708Z,7.03
2018-07-26T05:37:54.076Z,6.70
2018-07-26T05:40:06.274Z,6.90
2018-07-26T05:42:18.575Z,6.43
2018-07-26T05:44:30.806Z,5.53
2018-07-26T05:46:43.012Z,6.80
2018-07-26T05:48:55.471Z,6.20
2018-07-26T05:51:07.736Z,5.97
2018-07-26T05:53:20.065Z,6.40
2018-07-26T05:55:32.201Z,5.60
2018-07-26T05:57:44.464Z,6.00
2018-07-26T05:59:56.764Z,6.67
2018-07-26T06:02:09.029Z,6.30
2018-07-26T06:04:21.250Z,7.00
2018-07-26T06:06:33.519Z,6.67
2018-07-26T06:08:45.793Z,6.10
2018-07-26T06:10:58.014Z,7.77
2018-07-26T06:13:10.178Z,6.73
2018-07-26T06:15:22.385Z,6.57
2018-07-26T06:17:34.591Z,7.43
2018-07-26T06:19:46.802Z,6.70
2018-07-26T06:21:59.034Z,6.13
2018-07-26T06:24:11.285Z,6.67
2018-07-26T06:26:23.492Z,5.53
2018-07-26T06:28:35.709Z,6.63
2018-07-26T06:32:52.540Z,6.93
2018-07-26T06:35:05.349Z,6.37
2018-07-26T06:37:17.586Z,5.90
2018-07-26T06:39:29.851Z,6.40
2018-07-26T06:41:43.126Z,6.43
2018-07-26T06:43:55.326Z,6.57
2018-07-26T06:46:07.760Z,6.30
2018-07-26T06:48:19.955Z,5.20
2018-07-26T06:50:32.262Z,4.97
2018-07-26T06:52:44.539Z,5.37
2018-07-26T06:54:56.719Z,5.97
2018-07-26T06:57:08.977Z,5.80
2018-07-26T06:59:21.193Z,5.73
2018-07-26T07:01:33.427Z,5.10
2018-07-26T07:03:45.666Z,5.80
2018-07-26T07:05:57.863Z,5.27
2018-07-26T07:08:10.104Z,5.10
2018-07-26T07:10:22.380Z,5.30
2018-07-26T07:12:34.665Z,5.03
2018-07-26T07:14:46.924Z,5.00
2018-07-26T07:16:59.210Z,5.30
2018-07-26T07:19:11.402Z,4.87
2018-07-26T07:21:23.654Z,5.20
2018-07-26T07:23:35.858Z,4.90
2018-07-26T07:25:48.132Z,4.53
2018-07-26T07:28:00.356Z,4.90
2018-07-26T07:30:12.991Z,5.10
2018-07-26T07:32:25.214Z,5.07
2018-07-26T07:34:37.456Z,5.00
2018-07-26T07:36:49.675Z,4.75
2018-07-26T07:39:01.955Z,4.65
2018-07-26T07:41:14.235Z,5.25
2018-07-26T07:43:26.478Z,5.10
2018-07-26T07:45:38.711Z,4.85
2018-07-26T07:47:50.943Z,4.60
2018-07-26T07:50:03.680Z,4.33
2018-07-26T07:52:15.882Z,4.28
2018-07-26T07:54:28.138Z,4.50
2018-07-26T07:56:40.455Z,4.75
2018-07-26T07:58:52.652Z,4.65
2018-07-26T08:01:05.024Z,4.58
2018-07-26T08:03:17.238Z,4.22
2018-07-26T08:05:29.465Z,3.95
2018-07-26T08:07:41.707Z,3.83
2018-07-26T08:09:53.977Z,4.10
2018-07-26T08:12:06.369Z,3.65
2018-07-26T08:14:18.630Z,3.45
2018-07-26T08:16:30.889Z,3.72
2018-07-26T08:18:43.129Z,3.60
2018-07-26T08:20:55.406Z,3.40
2018-07-26T08:23:07.649Z,3.55
2018-07-26T08:25:19.895Z,3.80
2018-07-26T08:27:32.187Z,3.70
2018-07-26T08:29:44.438Z,3.22
2018-07-26T08:31:56.712Z,3.65
2018-07-26T08:34:09.001Z,3.20
2018-07-26T08:36:21.242Z,3.27
2018-07-26T08:38:33.479Z,3.37
2018-07-26T08:40:45.750Z,3.20
2018-07-26T08:42:57.981Z,3.40
2018-07-26T08:45:10.258Z,3.60
2018-07-26T08:47:22.548Z,3.27
2018-07-26T08:49:34.831Z,3.30
2018-07-26T08:51:47.080Z,3.10
2018-07-26T08:53:59.306Z,3.52
2018-07-26T08:56:11.534Z,3.27
2018-07-26T08:58:23.763Z,2.98
2018-07-26T09:00:36.015Z,3.20
2018-07-26T09:02:48.347Z,3.30
2018-07-26T09:05:00.539Z,2.70
2018-07-26T09:07:12.766Z,3.27
2018-07-26T09:09:25.039Z,3.30
2018-07-26T09:11:37.489Z,2.80
2018-07-26T09:13:49.762Z,3.20
2018-07-26T09:16:01.980Z,2.55
2018-07-26T09:18:14.310Z,2.60
2018-07-26T09:20:26.569Z,2.67
2018-07-26T09:22:38.794Z,2.67
2018-07-26T09:24:51.060Z,2.67
2018-07-26T09:27:03.333Z,2.60
2018-07-26T09:29:15.579Z,2.42
2018-07-26T09:31:27.860Z,2.80
2018-07-26T09:33:40.226Z,2.90
2018-07-26T09:35:52.526Z,2.62
2018-07-26T09:38:04.774Z,2.30
2018-07-26T09:40:17.104Z,2.50
2018-07-26T09:42:29.424Z,2.50
2018-07-26T09:44:41.643Z,2.75
2018-07-26T09:46:53.867Z,2.37
2018-07-26T09:49:06.103Z,2.55
2018-07-26T09:51:18.345Z,2.10
2018-07-26T09:53:30.671Z,2.35
2018-07-26T09:55:42.918Z,2.35
2018-07-26T09:57:55.245Z,2.35
2018-07-26T10:00:08.172Z,2.20
2018-07-26T10:02:20.390Z,2.35
2018-07-26T10:04:32.604Z,2.12
2018-07-26T10:06:44.885Z,1.92
2018-07-26T10:08:57.218Z,1.82
2018-07-26T10:11:09.442Z,2.00
2018-07-26T10:13:21.675Z,1.98
2018-07-26T10:15:33.866Z,2.10
2018-07-26T10:17:46.834Z,2.22
2018-07-26T10:19:59.061Z,2.10
2018-07-26T10:22:11.278Z,2.05
2018-07-26T10:24:23.551Z,2.05
2018-07-26T10:26:35.743Z,2.05
2018-07-26T10:28:48.034Z,1.90
2018-07-26T10:31:00.985Z,1.95
2018-07-26T10:33:13.224Z,1.75
2018-07-26T10:35:25.722Z,2.02
2018-07-26T10:37:37.997Z,2.15
2018-07-26T10:39:50.219Z,1.98
2018-07-26T10:42:02.536Z,2.17
2018-07-26T10:44:14.723Z,2.10
2018-07-26T10:46:26.952Z,2.15
2018-07-26T10:48:39.275Z,2.12
2018-07-26T10:50:51.503Z,2.17
2018-07-26T10:53:03.811Z,1.92
2018-07-26T10:55:16.066Z,2.08
2018-07-26T10:57:28.282Z,2.00
2018-07-26T10:59:40.752Z,2.12
2018-07-26T11:01:52.922Z,2.72
2018-07-26T11:04:05.265Z,2.05
2018-07-26T11:06:17.635Z,2.67
2018-07-26T11:08:29.870Z,2.10
2018-07-26T11:10:42.094Z,2.12
2018-07-26T11:12:54.379Z,2.80
2018-07-26T11:15:18.315Z,2.20
2018-07-26T11:17:30.619Z,2.17
2018-07-26T11:19:42.874Z,2.17
2018-07-26T11:21:55.132Z,2.40
2018-07-26T11:24:07.384Z,1.98
2018-07-26T11:26:19.611Z,2.05
2018-07-26T11:28:31.869Z,2.15
2018-07-26T11:30:44.155Z,2.52
2018-07-26T11:32:56.428Z,2.05
2018-07-26T11:35:08.886Z,2.33
2018-07-26T11:37:21.102Z,2.20
2018-07-26T11:39:33.318Z,2.30
2018-07-26T11:41:45.773Z,2.33
2018-07-26T11:43:58.495Z,1.92
2018-07-26T11:46:10.806Z,2.15
2018-07-26T11:48:23.049Z,2.10
2018-07-26T11:50:35.302Z,1.90
2018-07-26T11:52:48.936Z,1.60
2018-07-26T11:55:01.122Z,1.70
2018-07-26T11:57:13.353Z,1.90
2018-07-26T11:59:25.615Z,1.70
2018-07-26T12:01:38.703Z,1.90
2018-07-26T12:03:51.086Z,2.08
2018-07-26T12:06:03.421Z,2.17
2018-07-26T12:08:15.800Z,1.90
2018-07-26T12:10:27.991Z,2.10
2018-07-26T12:12:40.206Z,2.27
2018-07-26T12:14:52.452Z,2.10
2018-07-26T12:17:04.662Z,1.98
2018-07-26T12:19:16.926Z,2.00
2018-07-26T12:21:29.242Z,1.82
2018-07-26T12:23:41.484Z,2.17
2018-07-26T12:25:54.841Z,2.30
2018-07-26T12:28:07.327Z,2.20
2018-07-26T12:30:19.590Z,2.30
2018-07-26T12:32:31.776Z,2.37
2018-07-26T12:34:44.067Z,2.08
2018-07-26T12:36:58.111Z,2.33
2018-07-26T12:39:11.989Z,2.15
2018-07-26T12:41:24.271Z,2.52
2018-07-26T12:43:36.679Z,2.08
2018-07-26T12:45:48.866Z,2.30
2018-07-26T12:48:01.887Z,2.20
2018-07-26T12:50:14.091Z,2.45
2018-07-26T12:52:26.718Z,2.40
2018-07-26T12:54:39.827Z,2.10
2018-07-26T12:56:52.304Z,2.65
2018-07-26T12:59:04.659Z,2.33
2018-07-26T13:01:17.006Z,2.40
2018-07-26T13:03:29.197Z,2.20
2018-07-26T13:05:41.398Z,2.08
2018-07-26T13:07:53.631Z,2.25
2018-07-26T13:10:05.930Z,2.47
2018-07-26T13:12:18.307Z,2.52
2018-07-26T13:14:30.568Z,2.05
2018-07-26T13:16:42.866Z,2.50
2018-07-26T13:18:55.120Z,2.20
2018-07-26T13:21:07.442Z,2.17
2018-07-26T13:23:19.687Z,2.50
2018-07-26T13:25:31.881Z,2.35
2018-07-26T13:27:44.099Z,2.45
2018-07-26T13:29:56.348Z,2.70
2018-07-26T13:32:09.080Z,2.25
2018-07-26T13:34:21.356Z,2.33
2018-07-26T13:36:34.504Z,2.50
2018-07-26T13:38:46.737Z,2.90
2018-07-26T13:40:59.970Z,2.58
2018-07-26T13:43:12.182Z,2.47
2018-07-26T13:45:24.957Z,2.72
2018-07-26T13:47:37.491Z,2.95
2018-07-26T13:49:49.710Z,2.62
2018-07-26T13:52:01.915Z,2.70
2018-07-26T13:54:14.148Z,2.98
2018-07-26T13:56:27.339Z,2.37
2018-07-26T13:58:39.555Z,2.50
2018-07-26T14:00:51.799Z,2.30
2018-07-26T14:03:04.611Z,2.15
2018-07-26T14:05:16.811Z,2.70
2018-07-26T14:07:28.988Z,2.65
2018-07-26T14:09:41.320Z,2.60
2018-07-26T14:11:53.505Z,3.40
2018-07-26T14:14:06.222Z,2.42
2018-07-26T14:16:18.470Z,2.65
2018-07-26T14:18:30.659Z,2.67
2018-07-26T14:20:42.954Z,2.50
2018-07-26T14:22:55.098Z,2.62
2018-07-26T14:25:07.355Z,2.60
2018-07-26T14:27:19.624Z,2.40
2018-07-26T14:29:32.545Z,2.47
2018-07-26T14:31:45.655Z,2.52
2018-07-26T14:33:57.890Z,2.58
2018-07-26T14:36:10.136Z,2.58
2018-07-26T14:38:22.673Z,2.95
2018-07-26T14:40:34.831Z,2.80
2018-07-26T14:42:47.154Z,2.60
2018-07-26T14:44:59.436Z,2.65
2018-07-26T14:47:11.729Z,2.87
2018-07-26T14:49:23.995Z,2.70
2018-07-26T14:51:36.256Z,2.60
2018-07-26T14:53:48.466Z,2.40
2018-07-26T14:56:00.726Z,2.80
2018-07-26T14:58:12.963Z,2.60
2018-07-26T15:00:25.234Z,2.60
2018-07-26T15:02:37.480Z,2.85
2018-07-26T15:04:49.682Z,2.60
2018-07-26T15:07:02.462Z,2.60
2018-07-26T15:09:14.741Z,2.90
2018-07-26T15:11:26.973Z,2.98
2018-07-26T15:13:39.219Z,2.70
2018-07-26T15:15:52.402Z,2.80
2018-07-26T15:18:04.786Z,2.52
2018-07-26T15:20:17.012Z,3.10
2018-07-26T15:22:29.304Z,2.83
2018-07-26T15:24:41.548Z,3.50
2018-07-26T15:26:53.754Z,3.22
2018-07-26T15:29:06.063Z,2.83
2018-07-26T15:31:18.364Z,3.60
2018-07-26T15:33:30.619Z,3.37
2018-07-26T15:35:42.870Z,3.00
2018-07-26T15:37:55.088Z,3.30
2018-07-26T15:40:07.456Z,3.20
2018-07-26T15:42:19.706Z,3.08
2018-07-26T15:44:31.979Z,2.77
2018-07-26T15:46:44.175Z,2.92
2018-07-26T15:48:56.396Z,2.80
2018-07-26T15:51:08.669Z,3.08
2018-07-26T15:53:20.896Z,3.40
2018-07-26T15:55:37.019Z,3.02
2018-07-26T15:57:49.232Z,3.00
2018-07-26T16:00:01.475Z,3.08
2018-07-26T16:02:13.719Z,3.40
2018-07-26T16:04:25.936Z,3.30
2018-07-26T16:06:38.178Z,3.20
2018-07-26T16:08:50.574Z,3.17
2018-07-26T16:11:02.821Z,3.42
2018-07-26T16:13:15.087Z,3.05
2018-07-26T16:15:27.281Z,3.22
2018-07-26T16:17:39.625Z,3.22
2018-07-26T16:19:51.757Z,3.70
2018-07-26T16:22:04.086Z,3.37
2018-07-26T16:24:16.336Z,3.50
2018-07-26T16:26:28.636Z,3.27
2018-07-26T16:28:40.963Z,3.12
2018-07-26T16:30:53.183Z,3.50
2018-07-26T16:33:05.399Z,3.60
2018-07-26T16:35:17.689Z,3.47
2018-07-26T16:37:29.915Z,3.30
2018-07-26T16:39:42.181Z,3.10
2018-07-26T16:41:54.364Z,3.45
2018-07-26T16:44:06.715Z,3.02
2018-07-26T16:46:18.981Z,3.52
2018-07-26T16:48:31.226Z,3.30
2018-07-26T16:50:43.465Z,2.98
2018-07-26T16:52:55.694Z,2.80
2018-07-26T16:55:07.963Z,3.20
2018-07-26T16:57:20.322Z,3.12
2018-07-26T16:59:32.610Z,3.00
2018-07-26T17:01:44.862Z,3.35
2018-07-26T17:03:57.165Z,3.08
2018-07-26T17:06:09.374Z,2.92
2018-07-26T17:08:21.577Z,3.27
2018-07-26T17:10:33.789Z,3.25
2018-07-26T17:12:45.996Z,3.37
2018-07-26T17:14:58.190Z,3.20
2018-07-26T17:17:10.463Z,3.30
2018-07-26T17:19:22.750Z,2.90
2018-07-26T17:21:35.028Z,3.10
2018-07-26T17:23:47.254Z,3.02
2018-07-26T17:25:59.523Z,3.10
2018-07-26T17:28:11.760Z,2.98
2018-07-26T17:30:24.145Z,2.87
2018-07-26T17:32:36.409Z,2.47
2018-07-26T17:34:48.645Z,3.00
2018-07-26T17:37:00.917Z,2.77
2018-07-26T17:39:13.150Z,2.70
2018-07-26T17:41:25.389Z,2.70
2018-07-26T17:43:37.672Z,2.80
2018-07-26T17:45:49.864Z,3.08
2018-07-26T17:48:02.176Z,2.87
2018-07-26T17:50:14.439Z,2.87
2018-07-26T17:52:26.659Z,3.00
2018-07-26T17:54:38.849Z,3.10
2018-07-26T17:56:51.137Z,2.80
2018-07-26T17:59:03.338Z,2.90
2018-07-26T18:01:15.614Z,2.85
2018-07-26T18:03:27.866Z,2.87
2018-07-26T18:05:40.169Z,3.15
2018-07-26T18:07:52.411Z,2.60
2018-07-26T18:10:05.920Z,3.00
2018-07-26T18:12:18.159Z,3.10
2018-07-26T18:14:30.459Z,2.55
2018-07-26T18:16:42.654Z,2.45
2018-07-26T18:18:54.922Z,3.02
2018-07-26T18:21:07.158Z,2.60
2018-07-26T18:23:19.400Z,3.25
2018-07-26T18:25:31.763Z,2.60
2018-07-26T18:27:43.915Z,2.70
2018-07-26T18:29:56.160Z,4.08
2018-07-26T18:32:08.466Z,3.60
2018-07-26T18:34:20.699Z,3.22
2018-07-26T18:36:32.903Z,3.37
2018-07-26T18:38:45.159Z,3.12
2018-07-26T18:40:57.450Z,3.10
2018-07-26T18:43:09.666Z,3.20
2018-07-26T18:45:21.942Z,3.80
2018-07-26T18:47:34.207Z,3.90
2018-07-26T18:49:46.422Z,4.53
2018-07-26T18:51:58.702Z,3.98
2018-07-26T18:54:10.994Z,3.60
2018-07-26T18:56:23.263Z,3.77
2018-07-26T18:58:35.477Z,2.77
2018-07-26T19:00:47.738Z,3.80
2018-07-26T19:03:00.035Z,3.60
2018-07-26T19:05:12.342Z,2.85
2018-07-26T19:07:24.638Z,3.30
2018-07-26T19:09:36.872Z,3.70
2018-07-26T19:11:49.163Z,4.00
2018-07-26T19:14:01.445Z,4.20
2018-07-26T19:16:13.692Z,3.70
2018-07-26T19:18:25.927Z,3.27
2018-07-26T19:20:38.214Z,3.30
2018-07-26T19:22:50.482Z,3.00
2018-07-26T19:25:02.821Z,3.50
2018-07-26T19:27:15.219Z,3.70
2018-07-26T19:29:27.550Z,4.73
2018-07-26T19:31:39.848Z,3.83
2018-07-26T19:33:52.125Z,3.33
2018-07-26T19:36:04.443Z,3.90
2018-07-26T19:38:16.694Z,4.00
2018-07-26T19:40:28.939Z,4.63
2018-07-26T19:42:41.235Z,4.43
2018-07-26T19:44:53.459Z,3.43
2018-07-26T19:47:05.816Z,3.50
2018-07-26T19:49:18.342Z,3.63
2018-07-26T19:51:30.679Z,3.30
2018-07-26T19:53:42.993Z,3.60
2018-07-26T19:55:55.213Z,3.60
2018-07-26T19:58:07.473Z,3.83
2018-07-26T20:00:19.749Z,3.60
2018-07-26T20:02:32.002Z,2.90
2018-07-26T20:04:44.269Z,3.17
2018-07-26T20:06:56.503Z,2.83
2018-07-26T20:09:09.440Z,3.13
2018-07-26T20:11:21.671Z,3.57
2018-07-26T20:13:33.978Z,3.90
2018-07-26T20:15:46.239Z,4.27
2018-07-26T20:17:58.458Z,3.70
2018-07-26T20:20:11.414Z,3.87
2018-07-26T20:22:23.700Z,3.40
2018-07-26T20:24:35.955Z,3.27
2018-07-26T20:26:48.168Z,3.47
2018-07-26T20:29:00.431Z,3.57
2018-07-26T20:31:12.679Z,3.43
2018-07-26T20:33:24.902Z,3.67
2018-07-26T20:35:37.110Z,3.50
2018-07-26T20:37:49.409Z,3.53
2018-07-26T20:40:01.656Z,3.80
2018-07-26T20:42:13.931Z,3.87
2018-07-26T20:44:26.187Z,3.30
2018-07-26T20:46:38.872Z,3.80
2018-07-26T20:48:51.135Z,3.60
2018-07-26T20:51:03.389Z,4.10
2018-07-26T20:53:15.623Z,3.60
2018-07-26T20:55:27.864Z,3.27
2018-07-26T20:57:40.095Z,3.50
2018-07-26T20:59:52.347Z,4.37
2018-07-26T21:02:05.126Z,5.27
2018-07-26T21:04:17.341Z,7.03
2018-07-26T21:06:29.566Z,5.50
2018-07-26T21:08:41.857Z,4.70
2018-07-26T21:10:54.143Z,4.67
2018-07-26T21:13:06.619Z,3.80
2018-07-26T21:15:18.863Z,3.77
2018-07-26T21:17:31.071Z,4.57
2018-07-26T21:19:43.270Z,4.20
2018-07-26T21:21:55.481Z,4.10
2018-07-26T21:24:07.687Z,4.00
2018-07-26T21:26:19.960Z,4.03
2018-07-26T21:28:32.223Z,4.07
2018-07-26T21:30:44.418Z,4.43
2018-07-26T21:32:56.647Z,3.83
2018-07-26T21:35:08.897Z,4.10
2018-07-26T21:37:21.198Z,3.83
2018-07-26T21:39:33.391Z,4.20
2018-07-26T21:41:45.649Z,4.43
2018-07-26T21:43:57.875Z,4.10
2018-07-26T21:46:10.083Z,4.10
2018-07-26T21:48:22.283Z,4.20
2018-07-26T21:50:34.520Z,4.50
2018-07-26T21:52:46.728Z,4.20
2018-07-26T21:54:58.920Z,4.80
2018-07-26T21:57:11.123Z,4.33
2018-07-26T21:59:23.338Z,4.50
2018-07-26T22:01:35.570Z,4.13
2018-07-26T22:03:47.821Z,4.50
2018-07-26T22:06:00.039Z,4.53
2018-07-26T22:08:12.248Z,4.83
2018-07-26T22:10:24.502Z,5.00
2018-07-26T22:12:36.731Z,4.20
2018-07-26T22:14:48.942Z,4.60
2018-07-26T22:17:01.138Z,4.70
2018-07-26T22:19:13.319Z,4.20
2018-07-26T22:21:25.532Z,4.37
2018-07-26T22:23:37.728Z,4.17
2018-07-26T22:25:50.410Z,4.70
2018-07-26T22:28:02.719Z,4.40
2018-07-26T22:30:14.957Z,4.40
2018-07-26T22:32:27.170Z,4.20
2018-07-26T22:34:39.396Z,3.80
2018-07-26T22:36:51.590Z,4.30
2018-07-26T22:39:06.623Z,4.27
2018-07-26T22:41:18.841Z,4.83
2018-07-26T22:43:31.074Z,4.37
2018-07-26T22:45:43.295Z,3.90
2018-07-26T22:47:55.756Z,4.57
2018-07-26T22:50:07.990Z,4.40
2018-07-26T22:52:20.326Z,4.23
2018-07-26T22:54:32.523Z,4.73
2018-07-26T22:56:44.720Z,3.77
2018-07-26T22:58:56.911Z,3.70
2018-07-26T23:01:09.191Z,4.70
2018-07-26T23:03:21.497Z,4.40
2018-07-26T23:05:33.763Z,4.37
2018-07-26T23:07:46.036Z,4.20
2018-07-26T23:09:58.290Z,4.33
2018-07-26T23:12:10.531Z,4.10
2018-07-26T23:14:22.732Z,4.40
2018-07-26T23:16:34.924Z,4.53
2018-07-26T23:18:47.155Z,4.40
2018-07-26T23:20:59.335Z,4.77
2018-07-26T23:23:11.530Z,4.50
2018-07-26T23:25:23.718Z,4.47
2018-07-26T23:27:35.990Z,4.90
2018-07-26T23:29:48.468Z,4.30
2018-07-26T23:32:00.647Z,4.80
2018-07-26T23:34:12.869Z,4.60
2018-07-26T23:36:25.048Z,4.50
2018-07-26T23:38:37.211Z,4.33
2018-07-26T23:40:49.452Z,3.97
2018-07-26T23:43:01.615Z,3.83
2018-07-26T23:45:13.817Z,4.57
2018-07-26T23:47:26.024Z,4.53
2018-07-26T23:49:38.258Z,4.40
2018-07-26T23:51:50.487Z,4.43
2018-07-26T23:54:02.730Z,4.50
2018-07-26T23:56:14.942Z,4.30
2018-07-26T23:58:27.239Z,4.57
